Time;durP1;ratioP1;P1;durP2;ratioP2;P2;SDS_P1;SDS_P2;PMS_P1;PMS_P2;Temp;Humidity;BMP_temperature;BMP_pressure;BME280_temperature;BME280_humidity;BME280_pressure;Samples;Min_cycle;Max_cycle;Signal;HPM_P1;HPM_P2
2022/09/08 00:02:27;;;;;;;6.03;5.35;;;;;;;15.37;100.00;63583.41;4989800;28;20266;-77
2022/09/08 00:04:54;;;;;;;6.22;5.80;;;;;;;15.39;100.00;63591.16;4989089;28;20400;-77
2022/09/08 00:07:21;;;;;;;8.30;6.00;;;;;;;15.38;100.00;63587.00;4994930;28;20223;-76
2022/09/08 00:09:48;;;;;;;5.63;5.32;;;;;;;15.36;100.00;63587.50;4992952;28;20203;-77
2022/09/08 00:12:15;;;;;;;6.45;5.43;;;;;;;15.31;100.00;63585.38;5003971;28;20243;-77
2022/09/08 00:14:42;;;;;;;6.18;5.78;;;;;;;15.31;100.00;63585.38;5006014;28;20199;-78
2022/09/08 00:17:09;;;;;;;6.07;5.60;;;;;;;15.26;100.00;63577.09;5008564;28;20337;-77
2022/09/08 00:19:37;;;;;;;6.38;5.55;;;;;;;15.21;100.00;63569.34;5003830;28;20202;-77
2022/09/08 00:22:04;;;;;;;5.80;5.30;;;;;;;15.19;100.00;63572.91;5008342;28;20226;-77
2022/09/08 00:24:31;;;;;;;5.63;5.28;;;;;;;15.18;100.00;63571.34;5009369;28;20203;-78
2022/09/08 00:26:58;;;;;;;6.03;5.63;;;;;;;15.11;100.00;63562.03;5004603;28;20389;-78
2022/09/08 00:29:24;;;;;;;6.45;5.85;;;;;;;15.18;100.00;63561.09;5009018;28;20211;-77
2022/09/08 00:31:51;;;;;;;5.78;5.28;;;;;;;15.23;100.00;63571.41;5005355;28;20302;-77
2022/09/08 00:34:18;;;;;;;5.10;4.80;;;;;;;15.17;100.00;63568.25;4994579;28;20247;-78
2022/09/08 00:36:46;;;;;;;5.53;4.53;;;;;;;15.18;100.00;63563.66;4990895;28;20223;-78
2022/09/08 00:39:15;;;;;;;5.93;5.53;;;;;;;15.11;100.00;63562.03;5011013;28;20195;-77
2022/09/08 00:41:42;;;;;;;6.00;5.50;;;;;;;15.13;100.00;63566.69;4999266;28;20491;-77
2022/09/08 00:44:40;;;;;;;6.10;5.50;;;;;;;15.10;100.00;63563.06;5006822;28;20203;-77
2022/09/08 00:47:15;;;;;;;5.82;5.43;;;;;;;15.12;100.00;63560.50;4992372;28;20227;-77
2022/09/08 00:49:45;;;;;;;7.22;5.18;;;;;;;15.12;100.00;63563.06;5002076;28;20198;-77
2022/09/08 00:52:13;;;;;;;5.97;5.47;;;;;;;15.12;100.00;63560.50;4994537;28;20243;-77
2022/09/08 00:54:41;;;;;;;5.60;5.18;;;;;;;15.12;100.00;63560.00;4997739;28;20219;-76
2022/09/08 00:57:08;;;;;;;12.85;5.90;;;;;;;15.09;100.00;63562.53;5006592;28;20227;-76
2022/09/08 00:59:36;;;;;;;5.97;5.32;;;;;;;15.02;100.00;63550.13;5005992;28;20203;-78
2022/09/08 01:02:23;;;;;;;5.00;4.70;;;;;;;15.07;100.00;63555.84;4997192;28;20253;-78
2022/09/08 01:04:52;;;;;;;5.70;5.30;;;;;;;15.08;100.00;63559.44;5000358;28;20227;-78
2022/09/08 01:13:10;;;;;;;5.72;5.22;;;;;;;14.93;100.00;63543.84;5006066;28;20270;-78
2022/09/08 01:15:38;;;;;;;5.97;5.47;;;;;;;14.86;100.00;63534.00;4992515;28;20204;-77
2022/09/08 01:18:05;;;;;;;6.30;5.00;;;;;;;14.77;100.00;63526.72;5005605;28;20271;-77
2022/09/08 01:20:38;;;;;;;6.22;5.72;;;;;;;14.80;100.00;63527.25;5006676;28;20213;-77
2022/09/08 01:23:28;;;;;;;6.45;5.95;;;;;;;14.76;100.00;63523.63;5003457;28;20227;-77
2022/09/08 01:26:18;;;;;;;6.05;5.55;;;;;;;14.74;100.00;63518.47;4996526;28;20590;-77
2022/09/08 01:28:50;;;;;;;6.20;5.70;;;;;;;14.82;100.00;63529.34;4994354;28;20251;-77
2022/09/08 01:31:18;;;;;;;6.50;5.68;;;;;;;14.85;100.00;63530.41;5000254;28;20243;-77
2022/09/08 01:33:45;;;;;;;6.40;5.85;;;;;;;14.81;100.00;63530.84;4997641;28;20212;-78
2022/09/08 01:36:15;;;;;;;6.05;5.45;;;;;;;14.79;100.00;63533.91;4993991;28;20442;-77
2022/09/08 01:38:43;;;;;;;6.43;5.90;;;;;;;14.70;100.00;63517.38;5005480;28;20199;-77
2022/09/08 01:41:10;;;;;;;5.90;5.50;;;;;;;14.76;100.00;63528.22;5004841;28;20227;-77
2022/09/08 01:43:37;;;;;;;5.47;5.07;;;;;;;14.76;100.00;63526.19;4991984;28;20211;-77
2022/09/08 01:46:05;;;;;;;6.13;5.63;;;;;;;14.74;100.00;63526.16;4997781;28;20429;-77
2022/09/08 01:48:32;;;;;;;6.28;5.78;;;;;;;14.77;100.00;63524.16;5005001;28;20250;-76
2022/09/08 01:51:01;;;;;;;5.72;5.25;;;;;;;14.73;100.00;63525.66;5002557;28;20227;-77
2022/09/08 01:53:28;;;;;;;5.40;5.00;;;;;;;14.71;100.00;63523.56;4986184;28;20255;-77
2022/09/08 01:55:55;;;;;;;5.85;5.25;;;;;;;14.68;100.00;63515.31;4992985;28;20266;-77
2022/09/08 01:58:23;;;;;;;5.88;5.40;;;;;;;14.57;100.00;63505.94;5006126;28;20234;-78
2022/09/08 02:00:50;;;;;;;6.40;5.88;;;;;;;14.39;100.00;63484.69;5004068;28;20265;-77
2022/09/08 02:03:18;;;;;;;10.60;5.85;;;;;;;14.28;100.00;63476.34;5000853;28;20199;-77
2022/09/08 02:05:45;;;;;;;6.57;6.07;;;;;;;14.27;100.00;63477.84;4998538;28;20413;-78
2022/09/08 02:08:13;;;;;;;6.28;5.78;;;;;;;14.31;100.00;63478.94;4992255;28;20550;-77
2022/09/08 02:10:39;;;;;;;6.03;5.53;;;;;;;14.32;100.00;63483.06;5005767;28;20211;-78
2022/09/08 02:13:07;;;;;;;9.95;5.78;;;;;;;14.33;100.00;63481.00;5003623;28;20239;-77
2022/09/08 02:15:34;;;;;;;5.95;5.50;;;;;;;14.37;100.00;63482.59;5005433;28;20219;-78
2022/09/08 02:18:01;;;;;;;6.20;5.80;;;;;;;14.31;100.00;63479.44;5003503;28;20270;-79
2022/09/08 02:20:30;;;;;;;5.97;5.57;;;;;;;14.31;100.00;63474.31;5002470;28;20214;-77
2022/09/08 02:22:56;;;;;;;6.70;5.88;;;;;;;14.34;100.00;63480.00;5003542;28;20209;-77
2022/09/08 02:25:23;;;;;;;7.55;6.00;;;;;;;14.31;100.00;63473.81;4996885;28;20246;-77
2022/09/08 02:27:52;;;;;;;6.20;5.70;;;;;;;14.31;100.00;63482.00;5004405;28;20262;-77
2022/09/08 02:30:19;;;;;;;6.63;6.15;;;;;;;14.33;100.00;63481.00;5005968;28;20196;-77
2022/09/08 02:32:46;;;;;;;6.18;5.57;;;;;;;14.28;100.00;63476.34;5007342;28;20285;-77
2022/09/08 02:35:13;;;;;;;6.38;5.97;;;;;;;14.30;100.00;63478.41;4999527;28;20270;-77
2022/09/08 02:37:41;;;;;;;6.93;5.97;;;;;;;14.28;100.00;63478.91;4997245;28;20223;-79
2022/09/08 02:40:09;;;;;;;6.25;5.60;;;;;;;14.26;100.00;63476.81;4992482;28;20203;-76
2022/09/08 02:42:36;;;;;;;6.47;5.88;;;;;;;14.05;100.00;63452.44;5003930;28;20230;-76
2022/09/08 02:45:04;;;;;;;6.20;5.60;;;;;;;13.96;100.00;63440.53;5002021;28;20207;-77
2022/09/08 02:47:33;;;;;;;7.07;6.15;;;;;;;13.90;100.00;63434.81;4999918;28;20223;-77
2022/09/08 02:50:00;;;;;;;6.60;6.13;;;;;;;13.95;100.00;63442.06;5001536;28;20203;-77
2022/09/08 02:52:27;;;;;;;7.25;6.47;;;;;;;13.92;100.00;63433.81;4995319;28;20243;-77
2022/09/08 02:54:55;;;;;;;7.82;6.57;;;;;;;13.91;100.00;63432.78;5003972;28;20246;-77
2022/09/08 02:57:22;;;;;;;8.10;6.72;;;;;;;13.94;100.00;63444.09;5001095;28;20363;-77
2022/09/08 02:59:49;;;;;;;7.18;6.57;;;;;;;13.94;100.00;63443.59;4994943;28;20200;-77
2022/09/08 03:02:16;;;;;;;7.07;6.25;;;;;;;13.90;100.00;63436.88;4991872;28;20262;-77
2022/09/08 03:04:43;;;;;;;7.32;6.72;;;;;;;13.90;100.00;63436.88;4989575;28;20251;-77
2022/09/08 03:07:10;;;;;;;7.53;6.40;;;;;;;13.97;100.00;63446.69;4999191;28;20207;-77
2022/09/08 03:09:37;;;;;;;7.13;6.53;;;;;;;14.03;100.00;63447.28;4992515;28;20207;-77
2022/09/08 03:12:06;;;;;;;6.13;5.63;;;;;;;14.08;100.00;63452.97;4996906;28;20242;-78
2022/09/08 03:14:33;;;;;;;6.30;5.75;;;;;;;14.03;100.00;63450.34;5004066;28;20242;-78
2022/09/08 03:17:00;;;;;;;6.50;6.03;;;;;;;14.06;100.00;63453.47;5003664;28;20220;-77
2022/09/08 03:19:27;;;;;;;8.48;6.55;;;;;;;14.05;100.00;63449.88;5002020;28;20204;-77
2022/09/08 03:21:54;;;;;;;5.97;5.57;;;;;;;14.10;100.00;63457.63;4991314;28;20223;-77
2022/09/08 03:24:21;;;;;;;6.55;6.03;;;;;;;14.14;100.00;63461.25;4992241;28;20551;-78
2022/09/08 03:26:47;;;;;;;7.07;6.47;;;;;;;14.08;100.00;63452.97;5003935;28;20269;-77
2022/09/08 03:29:16;;;;;;;6.32;5.82;;;;;;;14.04;100.00;63451.41;5002873;28;20203;-76
2022/09/08 03:31:42;;;;;;;6.55;6.05;;;;;;;13.98;100.00;63444.66;4986728;28;20227;-77
2022/09/08 03:34:09;;;;;;;7.18;6.32;;;;;;;13.94;100.00;63443.59;4995394;28;20206;-76
2022/09/08 03:36:36;;;;;;;6.55;5.95;;;;;;;13.91;100.00;63437.88;4987969;28;20438;-77
2022/09/08 03:39:03;;;;;;;6.88;6.28;;;;;;;13.91;100.00;63437.88;5000769;28;20274;-77
2022/09/08 03:41:30;;;;;;;6.07;5.68;;;;;;;13.87;100.00;63434.25;5004550;28;20456;-78
2022/09/08 03:43:57;;;;;;;7.13;6.53;;;;;;;13.88;100.00;63432.75;4998076;28;20508;-77
2022/09/08 03:46:25;;;;;;;13.77;9.55;;;;;;;13.93;100.00;63442.03;4992774;28;20219;-77
2022/09/08 03:48:52;;;;;;;12.50;8.98;;;;;;;13.91;100.00;63437.88;4997802;28;20250;-77
2022/09/08 03:51:22;;;;;;;10.82;8.27;;;;;;;13.94;100.00;63436.41;4993485;28;20223;-77
2022/09/08 03:53:49;;;;;;;9.75;8.80;;;;;;;13.93;100.00;63445.63;5007530;28;20515;-77
2022/09/08 03:56:17;;;;;;;11.80;9.20;;;;;;;13.95;100.00;63442.06;5007925;28;20223;-77
2022/09/08 03:58:45;;;;;;;11.40;9.15;;;;;;;13.94;100.00;63438.97;5003428;28;20246;-77
2022/09/08 04:01:14;;;;;;;10.02;9.02;;;;;;;14.00;100.00;63446.72;4989389;28;20224;-78
2022/09/08 04:03:43;;;;;;;7.55;6.95;;;;;;;14.00;100.00;63441.59;5003717;28;20230;-78
2022/09/08 04:06:11;;;;;;;7.35;6.68;;;;;;;13.98;100.00;63442.09;5005622;28;20235;-77
2022/09/08 04:08:38;;;;;;;5.90;5.50;;;;;;;13.98;100.00;63440.03;4995331;28;20204;-76
2022/09/08 04:11:06;;;;;;;8.80;6.53;;;;;;;13.98;100.00;63444.66;4993084;28;20233;-77
2022/09/08 04:13:33;;;;;;;7.10;6.45;;;;;;;13.98;100.00;63442.09;5005096;28;20231;-77
2022/09/08 04:16:00;;;;;;;7.68;6.97;;;;;;;13.98;100.00;63442.09;5009542;28;20281;-76
2022/09/08 04:18:27;;;;;;;7.50;6.80;;;;;;;13.96;100.00;63440.00;4999207;28;20261;-77
2022/09/08 04:20:59;;;;;;;6.95;6.45;;;;;;;13.93;100.00;63440.50;5009896;28;20552;-78
2022/09/08 04:23:26;;;;;;;6.93;6.40;;;;;;;14.05;100.00;63449.88;4995248;28;20231;-78
2022/09/08 04:25:57;;;;;;;7.80;7.20;;;;;;;14.11;100.00;63456.09;5003805;28;20274;-78
2022/09/08 04:28:24;;;;;;;7.63;7.03;;;;;;;14.19;100.00;63466.97;5008913;28;20207;-77
2022/09/08 04:30:52;;;;;;;7.68;6.90;;;;;;;14.26;100.00;63471.69;5010437;28;20234;-79
2022/09/08 04:33:19;;;;;;;7.65;7.05;;;;;;;14.34;100.00;63479.50;5006323;28;20235;-78
2022/09/08 04:35:46;;;;;;;7.32;6.72;;;;;;;14.33;100.00;63478.97;5009694;28;20262;-77
2022/09/08 04:38:14;;;;;;;7.68;6.97;;;;;;;14.41;100.00;63487.28;5007728;28;20200;-78
2022/09/08 04:40:42;;;;;;;7.85;7.15;;;;;;;14.45;100.00;63493.47;5000531;28;20394;-77
2022/09/08 04:43:09;;;;;;;10.40;8.50;;;;;;;14.54;100.00;63497.69;5007275;28;20250;-78
2022/09/08 04:45:36;;;;;;;8.65;7.60;;;;;;;14.61;100.00;63513.19;5003384;28;20199;-78
2022/09/08 04:48:03;;;;;;;7.18;6.22;;;;;;;14.73;100.00;63520.00;5007084;28;20203;-78
2022/09/08 04:50:30;;;;;;;7.60;6.82;;;;;;;14.84;100.00;63534.50;4997664;28;20246;-76
2022/09/08 04:52:57;;;;;;;8.15;7.45;;;;;;;14.96;100.00;63546.97;5007337;28;20223;-78
2022/09/08 04:55:25;;;;;;;8.50;7.70;;;;;;;15.00;100.00;63548.56;5008782;28;20280;-78
2022/09/08 04:57:52;;;;;;;7.82;7.10;;;;;;;15.07;100.00;63555.84;5003234;28;20196;-77
2022/09/08 05:00:19;;;;;;;11.65;7.75;;;;;;;15.16;100.00;63569.81;4998269;28;20408;-77
2022/09/08 05:02:48;;;;;;;8.10;7.25;;;;;;;15.29;100.00;63572.53;5001481;28;20218;-77
2022/09/08 05:05:15;;;;;;;8.32;7.53;;;;;;;15.22;100.00;63565.75;5007741;28;20203;-76
2022/09/08 05:07:42;;;;;;;8.40;7.47;;;;;;;15.03;100.00;63551.69;5004009;28;20417;-77
2022/09/08 05:10:09;;;;;;;8.68;7.88;;;;;;;15.23;100.00;63571.41;5003226;28;20235;-76
2022/09/08 05:12:38;;;;;;;7.45;6.80;;;;;;;15.38;100.00;63590.09;5001361;28;20231;-77
2022/09/08 05:15:06;;;;;;;8.68;7.47;;;;;;;15.47;100.00;63601.53;5006789;28;20207;-77
2022/09/08 05:17:32;;;;;;;9.43;7.95;;;;;;;15.60;100.00;63612.47;5002292;28;20219;-77
2022/09/08 05:19:59;;;;;;;7.32;6.82;;;;;;;15.65;100.00;63617.69;5005308;28;20195;-77
2022/09/08 05:22:26;;;;;;;11.55;7.75;;;;;;;15.79;100.00;63635.31;4998232;28;20539;-78
2022/09/08 05:24:53;;;;;;;9.95;7.75;;;;;;;15.91;100.00;63642.13;5005700;28;20199;-76
2022/09/08 05:27:20;;;;;;;8.05;7.10;;;;;;;15.78;100.00;63633.75;5003101;28;20231;-77
2022/09/08 05:29:48;;;;;;;7.65;6.93;;;;;;;15.79;100.00;63629.66;5005488;28;20211;-78
2022/09/08 05:32:15;;;;;;;8.57;7.85;;;;;;;15.80;100.00;63631.22;5003351;28;20294;-78
2022/09/08 05:34:42;;;;;;;10.68;9.15;;;;;;;15.85;100.00;63635.88;5007103;28;20512;-78
2022/09/08 05:37:09;;;;;;;9.88;7.63;;;;;;;15.80;100.00;63631.22;5004187;28;20219;-77
2022/09/08 05:39:36;;;;;;;9.75;7.50;;;;;;;15.78;100.00;63626.56;5003761;28;20226;-77
2022/09/08 05:42:03;;;;;;;10.63;7.15;;;;;;;15.76;100.00;63626.53;5005664;28;20214;-77
2022/09/08 05:44:29;;;;;;;8.20;7.53;;;;;;;15.88;100.00;63639.00;5004341;28;20271;-76
2022/09/08 05:46:58;;;;;;;13.57;8.35;;;;;;;15.89;100.00;63645.69;5006826;28;20294;-76
2022/09/08 05:49:25;;;;;;;14.25;8.95;;;;;;;16.07;100.00;63659.28;5004278;28;21547;-77
2022/09/08 05:51:52;;;;;;;11.52;9.05;;;;;;;15.98;100.00;63651.97;5005233;28;20234;-77
2022/09/08 05:54:20;;;;;;;11.50;8.60;;;;;;;16.01;100.00;63652.53;4991574;28;20238;-78
2022/09/08 05:56:46;;;;;;;11.07;8.93;;;;;;;16.13;100.00;63665.53;4998385;28;20427;-78
2022/09/08 05:59:14;;;;;;;12.20;9.18;;;;;;;16.37;100.00;63692.53;4998332;28;20596;-79
2022/09/08 06:01:41;;;;;;;13.00;7.95;;;;;;;16.40;100.00;63697.72;5000522;28;20265;-80
2022/09/08 06:04:10;;;;;;;13.90;9.13;;;;;;;16.34;100.00;63686.34;4995594;28;20217;-78
2022/09/08 06:06:37;;;;;;;10.80;8.38;;;;;;;16.32;100.00;63682.22;4997906;28;20219;-78
2022/09/08 06:09:06;;;;;;;15.20;8.45;;;;;;;16.46;100.00;63696.25;4992474;28;20246;-79
2022/09/08 06:11:36;;;;;;;16.08;8.70;;;;;;;16.70;100.00;63724.34;5000805;28;21250;-78
2022/09/08 06:14:03;;;;;;;8.48;7.45;;;;;;;16.81;99.92;63735.25;4997590;28;20298;-77
2022/09/08 06:16:30;;;;;;;11.27;7.63;;;;;;;16.83;97.90;63737.31;5004363;28;20233;-77
2022/09/08 06:19:01;;;;;;;9.70;8.52;;;;;;;16.69;98.77;63725.84;5007301;28;20202;-78
2022/09/08 06:21:32;;;;;;;10.02;8.10;;;;;;;16.80;97.71;63734.75;5006477;28;20812;-77
2022/09/08 06:24:01;;;;;;;16.08;9.05;;;;;;;16.95;96.82;63752.38;5001592;28;20289;-77
2022/09/08 06:27:00;;;;;;;8.65;7.75;;;;;;;16.97;97.54;63749.31;4994133;28;20218;-76
2022/09/08 06:30:03;;;;;;;18.15;8.70;;;;;;;17.10;95.49;63768.53;4994327;28;20193;-78
2022/09/08 06:32:35;;;;;;;13.45;8.38;;;;;;;17.25;94.76;63784.16;4966418;28;20214;-78
2022/09/08 06:35:08;;;;;;;8.73;7.28;;;;;;;17.23;95.25;63779.50;4994912;28;20258;-77
2022/09/08 06:37:43;;;;;;;9.88;7.88;;;;;;;17.17;94.80;63772.72;5003428;28;20273;-78
2022/09/08 06:40:17;;;;;;;9.00;7.75;;;;;;;17.17;94.75;63773.25;5004211;28;20249;-77
2022/09/08 06:42:50;;;;;;;8.95;8.05;;;;;;;17.34;95.66;63788.34;5005357;28;20269;-75
2022/09/08 06:45:23;;;;;;;14.65;8.10;;;;;;;17.60;92.76;63819.56;5007202;28;20241;-77
2022/09/08 06:48:01;;;;;;;15.48;8.75;;;;;;;17.59;91.41;63816.47;4999191;28;20288;-76
2022/09/08 06:50:33;;;;;;;9.75;8.52;;;;;;;17.36;90.80;63791.97;4988309;28;20199;-76
2022/09/08 06:53:06;;;;;;;7.80;7.15;;;;;;;17.29;91.89;63788.31;5001135;28;20229;-79
2022/09/08 06:55:39;;;;;;;13.13;7.93;;;;;;;17.49;91.56;63810.69;5006309;28;20205;-78
2022/09/08 06:58:19;;;;;;;9.85;8.10;;;;;;;17.71;90.48;63831.53;4996716;28;20205;-77
2022/09/08 07:00:50;;;;;;;8.20;7.40;;;;;;;18.05;88.36;63869.03;5004249;28;20229;-77
2022/09/08 07:03:35;;;;;;;9.32;7.18;;;;;;;18.25;86.10;63887.78;4998069;28;20195;-76
2022/09/08 07:06:05;;;;;;;12.88;8.95;;;;;;;17.94;86.96;63855.50;4994898;28;20241;-77
2022/09/08 07:09:04;;;;;;;10.88;8.57;;;;;;;18.22;85.30;63887.22;4998854;28;20203;-77
2022/09/08 07:11:42;;;;;;;12.07;8.40;;;;;;;18.22;85.71;63884.66;4999168;28;20253;-77
2022/09/08 07:14:27;;;;;;;9.23;8.32;;;;;;;18.19;83.88;63884.13;5007129;28;20222;-75
2022/09/08 07:17:00;;;;;;;9.77;8.68;;;;;;;18.30;84.32;63895.59;5001596;28;20243;-77
2022/09/08 07:19:34;;;;;;;16.25;8.10;;;;;;;18.45;82.69;63908.13;4998601;28;20227;-77
2022/09/08 07:22:06;;;;;;;11.13;8.45;;;;;;;18.50;81.27;63915.41;5001414;28;20221;-79
2022/09/08 07:24:38;;;;;;;14.00;8.00;;;;;;;18.63;83.02;63928.94;4990838;28;20266;-78
2022/09/08 07:27:10;;;;;;;9.32;7.47;;;;;;;18.75;80.00;63939.41;5002095;28;20242;-78
2022/09/08 07:29:42;;;;;;;8.57;7.75;;;;;;;18.88;80.44;63949.84;4991723;28;20202;-76
2022/09/08 07:32:16;;;;;;;8.85;7.10;;;;;;;18.91;77.26;63956.09;5005724;28;20436;-75
2022/09/08 07:34:50;;;;;;;8.95;7.78;;;;;;;19.05;77.93;63975.31;4992808;28;20621;-77
2022/09/08 07:37:24;;;;;;;10.93;7.10;;;;;;;19.36;76.97;64003.00;4987629;28;20242;-78
2022/09/08 07:39:59;;;;;;;9.82;6.70;;;;;;;19.53;73.35;64023.31;4989916;28;20195;-77
2022/09/08 07:42:26;;;;;;;8.35;6.40;;;;;;;19.58;70.02;64022.31;4993486;28;20213;-77
2022/09/08 07:44:59;;;;;;;7.13;5.88;;;;;;;19.90;69.81;64055.69;5002485;28;20202;-78
2022/09/08 07:47:39;;;;;;;6.45;5.88;;;;;;;20.24;67.81;64093.78;5008799;28;20225;-77
2022/09/08 07:50:16;;;;;;;8.15;5.38;;;;;;;20.64;64.88;64136.06;5004079;28;20198;-77
2022/09/08 07:52:51;;;;;;;4.90;4.60;;;;;;;20.76;60.30;64147.56;5009146;28;20222;-75
2022/09/08 07:55:27;;;;;;;4.60;4.32;;;;;;;20.79;59.70;64151.19;4995556;28;20206;-77
2022/09/08 07:58:04;;;;;;;7.97;5.40;;;;;;;20.68;61.17;64137.13;4991721;28;20211;-76
2022/09/08 08:00:37;;;;;;;6.43;5.53;;;;;;;20.36;63.03;64103.72;4998802;28;20261;-77
2022/09/08 08:03:37;;;;;;;6.38;5.63;;;;;;;20.31;64.21;64101.59;5006246;28;20262;-76
2022/09/08 08:06:08;;;;;;;5.80;5.40;;;;;;;20.54;63.26;64125.09;4987526;28;20492;-78
2022/09/08 08:08:46;;;;;;;7.63;5.65;;;;;;;20.85;61.85;64154.34;4994062;28;20415;-77
2022/09/08 08:11:21;;;;;;;8.55;5.78;;;;;;;21.09;62.54;64184.63;5008995;28;20234;-77
2022/09/08 08:14:02;;;;;;;6.10;5.53;;;;;;;21.28;62.30;64196.66;4990278;28;20503;-78
2022/09/08 08:16:41;;;;;;;6.03;5.53;;;;;;;20.97;61.24;64164.81;4985281;28;20267;-76
2022/09/08 08:19:23;;;;;;;9.57;5.70;;;;;;;21.19;60.54;64190.38;4985123;28;20486;-76
2022/09/08 08:21:58;;;;;;;9.40;5.88;;;;;;;21.42;59.86;64219.59;4989286;28;20226;-79
2022/09/08 08:24:34;;;;;;;8.70;5.60;;;;;;;21.61;61.22;64236.31;4986773;28;20409;-79
2022/09/08 08:27:13;;;;;;;6.97;6.10;;;;;;;21.98;58.35;64274.50;4986598;28;20219;-77
2022/09/08 08:29:53;;;;;;;7.38;5.70;;;;;;;21.63;58.46;64238.41;4988713;28;20235;-76
2022/09/08 08:32:24;;;;;;;10.95;6.00;;;;;;;21.22;61.60;64198.72;4989721;28;20250;-76
2022/09/08 08:34:59;;;;;;;6.05;5.55;;;;;;;21.49;61.42;64226.91;4986536;28;20231;-77
2022/09/08 08:37:30;;;;;;;5.60;4.88;;;;;;;21.72;59.57;64247.81;4990860;28;20240;-76
2022/09/08 08:39:59;;;;;;;8.93;5.45;;;;;;;21.82;57.66;64258.28;4999093;28;20194;-78
2022/09/08 08:42:54;;;;;;;11.35;6.32;;;;;;;21.89;57.67;64265.09;4997983;28;20251;-77
2022/09/08 08:45:29;;;;;;;7.65;5.90;;;;;;;22.11;57.32;64288.59;4990558;28;20382;-77
2022/09/08 08:48:21;;;;;;;6.20;5.60;;;;;;;22.32;56.35;64307.44;4989538;28;20195;-78
2022/09/08 08:51:06;;;;;;;8.93;5.88;;;;;;;22.29;56.04;64307.41;4990784;28;20242;-78
2022/09/08 08:53:54;;;;;;;6.38;5.88;;;;;;;22.27;56.53;64304.78;4991567;28;20242;-77
2022/09/08 08:56:29;;;;;;;6.05;5.55;;;;;;;22.22;56.50;64296.97;4989908;28;20219;-77
2022/09/08 08:59:17;;;;;;;8.13;5.85;;;;;;;22.33;56.34;64311.06;4989506;28;20419;-76
2022/09/08 09:02:00;;;;;;;8.25;6.10;;;;;;;22.33;55.59;64311.59;4990511;28;20223;-79
2022/09/08 09:04:52;;;;;;;5.80;5.30;;;;;;;22.87;55.63;64367.53;4990991;28;20187;-77
2022/09/08 09:07:41;;;;;;;6.13;5.53;;;;;;;22.84;56.25;64362.34;4990437;28;20220;-77
2022/09/08 09:10:21;;;;;;;6.30;5.80;;;;;;;22.81;53.67;64359.19;4997665;28;20214;-77
2022/09/08 09:13:13;;;;;;;7.50;5.93;;;;;;;22.82;53.63;64360.25;4988503;28;20267;-76
2022/09/08 09:15:54;;;;;;;15.88;6.13;;;;;;;22.79;54.03;64359.72;4988420;28;20223;-77
2022/09/08 09:18:48;;;;;;;5.85;5.35;;;;;;;22.62;52.96;64341.91;4989729;28;20491;-77
2022/09/08 09:21:24;;;;;;;5.80;5.28;;;;;;;22.84;52.64;64367.53;4988869;28;20224;-77
2022/09/08 09:24:00;;;;;;;5.57;5.10;;;;;;;22.90;52.69;64373.81;4993879;28;20420;-77
2022/09/08 09:26:32;;;;;;;6.28;5.53;;;;;;;22.99;52.44;64380.09;5004136;28;20253;-78
2022/09/08 09:29:10;;;;;;;8.02;5.55;;;;;;;23.08;53.78;64386.38;4996983;28;20234;-77
2022/09/08 09:32:14;;;;;;;6.72;5.40;;;;;;;23.33;55.91;64417.75;4998185;28;20230;-76
2022/09/08 09:35:14;;;;;;;7.40;5.85;;;;;;;23.41;51.77;64426.13;4999546;28;20298;-76
2022/09/08 09:38:10;;;;;;;8.30;5.55;;;;;;;23.37;53.63;64419.34;4965365;28;20214;-77
2022/09/08 09:40:55;;;;;;;7.53;5.50;;;;;;;23.75;51.67;64459.63;4992018;28;20203;-77
2022/09/08 09:43:48;;;;;;;6.43;5.72;;;;;;;23.72;52.01;64459.09;5002852;28;20195;-77
2022/09/08 09:46:51;;;;;;;5.60;5.20;;;;;;;23.30;51.79;64412.53;4993856;28;20365;-77
2022/09/08 09:49:49;;;;;;;5.75;5.25;;;;;;;23.28;53.06;64412.53;5002197;28;20404;-76
2022/09/08 09:52:22;;;;;;;10.02;5.32;;;;;;;23.15;53.27;64394.22;5008090;28;20230;-76
2022/09/08 09:55:15;;;;;;;6.18;5.70;;;;;;;23.22;52.59;64409.34;4996548;28;20260;-76
2022/09/08 09:58:25;;;;;;;6.45;5.75;;;;;;;23.47;53.07;64429.81;5006828;28;20219;-76
2022/09/08 10:01:18;;;;;;;6.13;5.63;;;;;;;23.71;53.83;64454.91;5006215;28;20257;-77
2022/09/08 10:04:20;;;;;;;7.07;5.10;;;;;;;24.00;52.55;64485.78;5008926;28;20226;-77
2022/09/08 10:07:14;;;;;;;13.95;5.60;;;;;;;24.25;52.22;64508.31;4989909;28;20222;-76
2022/09/08 10:10:11;;;;;;;6.25;5.70;;;;;;;24.37;50.25;64528.69;4987801;28;20232;-77
2022/09/08 10:13:20;;;;;;;5.03;4.63;;;;;;;24.67;49.61;64554.91;4991290;28;20428;-76
2022/09/08 10:16:19;;;;;;;5.07;4.15;;;;;;;24.67;48.74;64552.28;4986730;28;20278;-77
2022/09/08 10:19:25;;;;;;;5.00;4.65;;;;;;;24.84;49.51;64572.72;4993655;28;20195;-74
2022/09/08 10:22:28;;;;;;;6.18;5.03;;;;;;;25.15;47.51;64607.78;5002085;28;20218;-74
2022/09/08 10:25:31;;;;;;;5.20;4.75;;;;;;;25.25;47.53;64609.94;4973147;28;20214;-74
2022/09/08 10:28:33;;;;;;;5.53;4.95;;;;;;;24.99;48.26;64588.97;4966907;28;20212;-74
2022/09/08 10:31:29;;;;;;;5.75;5.13;;;;;;;24.82;46.70;64573.22;5000858;28;20223;-76
2022/09/08 10:34:47;;;;;;;11.10;5.63;;;;;;;24.78;48.00;64563.84;4990907;28;20227;-73
2022/09/08 10:37:39;;;;;;;5.88;5.15;;;;;;;24.62;48.62;64550.19;5008376;28;20566;-72
2022/09/08 10:40:25;;;;;;;6.25;5.75;;;;;;;24.73;48.75;64561.22;5010960;28;20207;-74
2022/09/08 10:42:54;;;;;;;7.72;5.53;;;;;;;25.04;48.74;64596.25;5007211;28;20416;-74
2022/09/08 10:45:34;;;;;;;6.70;6.10;;;;;;;25.20;47.34;64613.03;4997587;28;20195;-73
2022/09/08 10:48:29;;;;;;;7.63;5.63;;;;;;;25.21;48.73;64610.97;4992294;28;20211;-73
2022/09/08 10:51:12;;;;;;;6.07;5.50;;;;;;;25.08;47.38;64595.25;4991995;28;20234;-75
2022/09/08 10:53:59;;;;;;;6.00;5.40;;;;;;;25.38;48.18;64631.41;5005026;28;20195;-74
2022/09/08 10:56:27;;;;;;;5.53;5.20;;;;;;;25.55;47.01;64644.50;4989928;28;20227;-74
2022/09/08 10:59:16;;;;;;;8.63;5.35;;;;;;;25.36;46.69;64624.06;5002528;28;20242;-73
2022/09/08 11:02:14;;;;;;;7.00;5.32;;;;;;;25.44;46.39;64640.28;4992757;28;20235;-74
2022/09/08 11:05:18;;;;;;;5.65;5.15;;;;;;;25.56;46.96;64648.16;5006246;28;20244;-74
2022/09/08 11:08:15;;;;;;;7.63;5.10;;;;;;;25.25;46.47;64615.16;4995375;28;20229;-73
2022/09/08 11:10:57;;;;;;;6.63;4.75;;;;;;;25.11;46.12;64601.00;4992585;28;20210;-73
2022/09/08 11:13:30;;;;;;;4.82;4.53;;;;;;;24.99;47.33;64588.44;4997339;28;20391;-75
2022/09/08 11:16:33;;;;;;;5.88;5.10;;;;;;;25.04;47.61;64591.59;4989229;28;20253;-74
2022/09/08 11:19:25;;;;;;;7.55;4.95;;;;;;;25.23;48.13;64615.66;4954797;28;20254;-73
2022/09/08 11:22:10;;;;;;;7.32;5.00;;;;;;;25.46;47.33;64637.16;4990106;28;20226;-76
2022/09/08 11:24:45;;;;;;;5.57;4.65;;;;;;;25.56;45.46;64647.66;4988432;28;20199;-78
2022/09/08 11:27:24;;;;;;;9.90;5.03;;;;;;;25.76;45.58;64673.81;5002994;28;20246;-77
2022/09/08 11:30:11;;;;;;;5.18;4.78;;;;;;;25.84;45.86;64679.59;5006079;28;20202;-77
2022/09/08 11:32:47;;;;;;;5.28;4.85;;;;;;;25.91;45.28;64684.31;4995257;28;20221;-76
2022/09/08 11:35:38;;;;;;;5.38;4.88;;;;;;;26.18;47.54;64713.16;4998026;28;20221;-77
2022/09/08 11:38:18;;;;;;;5.93;4.80;;;;;;;26.17;44.83;64712.13;5000383;28;20191;-78
2022/09/08 11:41:12;;;;;;;5.00;4.60;;;;;;;26.14;44.88;64711.56;5005648;28;20217;-77
2022/09/08 11:43:55;;;;;;;7.40;5.22;;;;;;;25.99;44.78;64693.22;5005954;28;20211;-77
2022/09/08 11:46:34;;;;;;;4.93;4.63;;;;;;;25.83;46.00;64676.47;5008641;28;20218;-76
2022/09/08 11:49:44;;;;;;;5.20;4.80;;;;;;;25.97;45.49;64698.97;5005615;28;20183;-79
2022/09/08 11:52:29;;;;;;;4.40;4.18;;;;;;;26.08;44.78;64702.69;5004878;28;20250;-79
2022/09/08 11:55:08;;;;;;;4.53;4.32;;;;;;;26.23;45.39;64721.00;5000242;28;20253;-77
2022/09/08 11:57:50;;;;;;;4.95;4.65;;;;;;;26.20;45.84;64717.34;5006606;28;20229;-77
2022/09/08 12:00:29;;;;;;;5.80;5.20;;;;;;;26.38;46.78;64733.63;5000507;28;20351;-77
2022/09/08 12:03:19;;;;;;;8.57;5.15;;;;;;;26.38;46.97;64735.69;5007035;28;20273;-78
2022/09/08 12:06:13;;;;;;;5.68;4.97;;;;;;;26.35;47.47;64730.47;5008204;28;20241;-79
2022/09/08 12:08:59;;;;;;;4.80;4.40;;;;;;;26.56;46.13;64752.47;5008064;28;20198;-78
2022/09/08 12:11:48;;;;;;;4.90;4.57;;;;;;;26.77;45.30;64771.91;5010939;28;20246;-78